Time;durP1;ratioP1;P1;durP2;ratioP2;P2;SDS_P1;SDS_P2;PMS_P1;PMS_P2;Temp;Humidity;BMP_temperature;BMP_pressure;BME280_temperature;BME280_humidity;BME280_pressure;Samples;Min_cycle;Max_cycle;Signal;HPM_P1;HPM_P2
2022/09/02 00:00:25;;;;;;;7.72;4.33;;;;;;;23.11;46.26;101562.33;2289847;76;50275;-76
2022/09/02 00:03:35;;;;;;;9.60;4.47;;;;;;;23.10;46.23;101559.31;2290011;76;51508;-75
2022/09/02 00:06:37;;;;;;;7.62;4.28;;;;;;;23.10;46.26;101564.20;2265089;77;50364;-76
2022/09/02 00:09:39;;;;;;;8.73;4.30;;;;;;;23.09;46.29;101554.41;2251221;77;50343;-75
2022/09/02 00:12:42;;;;;;;7.53;4.53;;;;;;;23.10;46.26;101560.66;2280629;77;50540;-75
2022/09/02 00:15:44;;;;;;;10.85;4.92;;;;;;;23.09;46.30;101558.45;2255008;77;51478;-77
2022/09/02 00:18:47;;;;;;;5.92;4.10;;;;;;;23.09;46.32;101559.80;2259785;77;50560;-75
2022/09/02 00:21:50;;;;;;;9.70;4.25;;;;;;;23.09;46.33;101555.75;2295509;75;52573;-76
2022/09/02 00:24:53;;;;;;;8.18;4.10;;;;;;;23.10;46.31;101552.05;2296499;76;50504;-76
2022/09/02 00:27:55;;;;;;;8.13;4.53;;;;;;;23.09;46.34;101554.92;2297735;76;50735;-76
2022/09/02 00:30:57;;;;;;;6.12;4.05;;;;;;;23.08;46.36;101547.34;2316273;76;51478;-74
2022/09/02 00:33:59;;;;;;;6.85;4.00;;;;;;;23.08;46.35;101550.05;2316632;76;50573;-75
2022/09/02 00:37:01;;;;;;;10.23;4.35;;;;;;;23.10;46.36;101549.34;2316071;76;51349;-75
2022/09/02 00:40:05;;;;;;;8.88;4.08;;;;;;;23.08;46.37;101551.39;2316175;75;53646;-75
2022/09/02 00:43:08;;;;;;;6.42;4.12;;;;;;;23.07;46.40;101545.69;2261132;76;50357;-76
2022/09/02 00:46:11;;;;;;;7.20;4.37;;;;;;;23.08;46.42;101539.25;2299158;76;50030;-76
2022/09/02 00:49:25;;;;;;;7.12;4.05;;;;;;;23.07;46.42;101548.38;2297904;76;51385;-76
2022/09/02 00:52:34;;;;;;;10.40;4.30;;;;;;;23.07;46.45;101547.53;2277443;78;51486;-76
2022/09/02 00:55:40;;;;;;;7.55;4.10;;;;;;;23.07;46.45;101542.13;2277035;77;50780;-76
2022/09/02 00:58:43;;;;;;;6.37;3.83;;;;;;;23.06;46.45;101534.55;2276890;77;50478;-76
2022/09/02 01:01:45;;;;;;;7.42;3.80;;;;;;;23.06;46.48;101535.90;2297947;76;49263;-77
2022/09/02 01:04:47;;;;;;;7.65;4.35;;;;;;;23.04;46.50;101538.80;2272321;78;50702;-76
2022/09/02 01:07:50;;;;;;;8.00;4.42;;;;;;;23.06;46.51;101542.64;2277171;76;50590;-76
2022/09/02 01:10:54;;;;;;;8.23;3.65;;;;;;;23.05;46.50;101536.94;2272078;78;50976;-76
2022/09/02 01:13:56;;;;;;;11.08;3.80;;;;;;;23.05;46.51;101523.44;2290902;77;50729;-74
2022/09/02 01:17:00;;;;;;;7.10;3.58;;;;;;;23.06;46.49;101518.88;2289517;77;50348;-75
2022/09/02 01:20:05;;;;;;;8.05;3.90;;;;;;;23.05;46.53;101520.73;2289863;76;50627;-76
2022/09/02 01:23:07;;;;;;;;;;;;;;;23.06;46.52;101518.88;2291055;77;50711;-76
2022/09/02 01:26:09;;;;;;;6.83;3.60;;;;;;;23.04;46.52;101519.91;2256648;77;50899;-75
2022/09/02 01:29:12;;;;;;;9.18;4.20;;;;;;;23.05;46.55;101520.73;2289840;76;50588;-75
2022/09/02 01:32:14;;;;;;;6.75;3.77;;;;;;;23.05;46.54;101523.44;2290013;77;50220;-76
2022/09/02 01:35:16;;;;;;;6.87;3.70;;;;;;;23.04;46.57;101517.70;2256934;77;51870;-76
2022/09/02 01:38:18;;;;;;;8.25;3.70;;;;;;;23.05;46.56;101515.34;2282283;77;51508;-76
2022/09/02 01:41:21;;;;;;;5.50;3.52;;;;;;;23.03;46.58;101514.17;2289961;77;50651;-77
2022/09/02 01:44:26;;;;;;;8.08;3.92;;;;;;;23.04;46.59;101510.95;2252187;77;49829;-75
2022/09/02 01:47:27;;;;;;;7.83;3.90;;;;;;;23.04;46.58;101509.60;2282324;77;22364;-76
2022/09/02 01:50:30;;;;;;;6.75;3.50;;;;;;;23.03;46.59;101514.69;2257057;77;51277;-75
2022/09/02 01:53:32;;;;;;;8.63;3.98;;;;;;;23.04;46.61;101515.86;2282619;77;51489;-76
2022/09/02 01:56:34;;;;;;;7.05;3.50;;;;;;;23.04;46.59;101526.66;2282729;76;50363;-76
2022/09/02 01:59:37;;;;;;;5.30;3.30;;;;;;;23.03;46.60;101514.69;2255892;77;50035;-76
2022/09/02 02:02:39;;;;;;;9.40;3.70;;;;;;;23.02;46.60;101513.86;2257123;77;51561;-76
2022/09/02 02:05:41;;;;;;;6.78;3.45;;;;;;;23.04;46.63;101517.70;2290045;77;51542;-75
2022/09/02 02:08:44;;;;;;;7.15;3.42;;;;;;;23.02;46.65;101507.63;2232696;76;52774;-77
2022/09/02 02:11:46;;;;;;;5.95;3.33;;;;;;;23.01;46.65;101509.47;2293460;76;50725;-76
2022/09/02 02:14:48;;;;;;;5.87;3.27;;;;;;;23.02;46.67;101510.33;2289841;77;51342;-76
2022/09/02 02:17:50;;;;;;;6.03;3.00;;;;;;;23.01;46.66;101507.30;2256761;77;50306;-76
2022/09/02 02:20:53;;;;;;;7.10;3.45;;;;;;;23.02;46.65;101506.28;2283069;76;50163;-76
2022/09/02 02:23:55;;;;;;;6.65;3.45;;;;;;;23.01;46.67;101508.64;2257576;77;49533;-76
2022/09/02 02:26:57;;;;;;;7.28;3.58;;;;;;;23.01;46.67;101505.94;2282710;77;50656;-76
2022/09/02 02:29:59;;;;;;;8.70;3.35;;;;;;;23.01;46.68;101507.30;2291189;76;51532;-75
2022/09/02 02:33:02;;;;;;;6.00;3.35;;;;;;;23.01;46.69;101511.34;2258623;77;50045;-75
2022/09/02 02:36:05;;;;;;;5.45;3.00;;;;;;;23.01;46.69;101503.24;2258442;77;51521;-75
2022/09/02 02:39:08;;;;;;;6.17;3.42;;;;;;;23.01;46.70;101503.24;2258384;76;50820;-75
2022/09/02 02:42:12;;;;;;;6.53;3.27;;;;;;;23.00;46.70;101502.41;2287802;77;51472;-74
2022/09/02 02:45:14;;;;;;;5.30;3.10;;;;;;;23.00;46.73;101498.89;2287738;77;50574;-74
2022/09/02 02:48:17;;;;;;;6.97;3.50;;;;;;;23.00;46.73;101502.41;2260197;77;50713;-75
2022/09/02 02:51:19;;;;;;;5.78;3.00;;;;;;;23.01;46.72;101504.59;2285386;76;51594;-74
2022/09/02 02:54:21;;;;;;;5.58;3.08;;;;;;;23.00;46.72;101496.19;2259648;77;52254;-74
2022/09/02 02:57:23;;;;;;;6.22;3.00;;;;;;;22.99;46.73;101496.70;2233157;77;50080;-74
2022/09/02 03:00:28;;;;;;;5.45;3.20;;;;;;;23.01;46.72;101492.45;2283707;76;50273;-74
2022/09/02 03:03:30;;;;;;;7.70;2.90;;;;;;;22.99;46.75;101500.76;2294042;77;50767;-74
2022/09/02 03:06:32;;;;;;;6.03;2.87;;;;;;;22.99;46.76;101491.80;2291820;77;50636;-75
2022/09/02 03:09:35;;;;;;;5.28;3.40;;;;;;;22.98;46.78;101499.58;2292588;76;50604;-76
2022/09/02 03:12:38;;;;;;;7.20;3.10;;;;;;;22.99;46.78;101499.89;2246629;78;50045;-76
2022/09/02 03:15:40;;;;;;;3.00;2.60;;;;;;;22.98;46.78;101500.94;2275438;76;51578;-75
2022/09/02 03:18:43;;;;;;;4.78;3.02;;;;;;;22.98;46.77;101496.89;2293645;76;51249;-76
2022/09/02 03:21:45;;;;;;;3.80;2.90;;;;;;;22.98;46.77;101494.19;2262106;77;49858;-76
2022/09/02 03:24:47;;;;;;;6.53;3.02;;;;;;;22.98;46.78;101495.53;2282618;77;52453;-76
2022/09/02 03:27:49;;;;;;;7.03;3.40;;;;;;;22.97;46.80;101487.96;2289818;76;52247;-75
2022/09/02 03:30:51;;;;;;;4.97;3.00;;;;;;;22.97;46.77;101487.13;2293401;76;52396;-76
2022/09/02 03:33:54;;;;;;;5.50;2.52;;;;;;;22.97;46.77;101487.96;2290000;77;52342;-76
2022/09/02 03:36:56;;;;;;;5.83;3.17;;;;;;;22.96;46.78;101485.41;2289894;77;50148;-77
2022/09/02 03:39:58;;;;;;;7.20;2.80;;;;;;;22.95;46.82;101491.84;2257645;77;49928;-77
2022/09/02 03:43:00;;;;;;;4.40;2.52;;;;;;;22.96;46.81;101495.69;2257314;77;50181;-75
2022/09/02 03:46:04;;;;;;;3.90;2.47;;;;;;;22.96;46.80;101481.36;2232457;77;50246;-75
2022/09/02 03:49:06;;;;;;;5.85;2.80;;;;;;;22.95;46.78;101484.58;2257310;76;50094;-76
2022/09/02 03:52:08;;;;;;;4.08;2.80;;;;;;;22.95;46.81;101481.05;2249973;77;50266;-75
2022/09/02 03:55:11;;;;;;;5.40;2.65;;;;;;;22.95;46.82;101482.40;2256995;77;50417;-74
2022/09/02 03:58:13;;;;;;;4.45;2.50;;;;;;;22.94;46.83;101476.66;2289919;76;50673;-77
2022/09/02 04:01:18;;;;;;;5.15;2.95;;;;;;;22.94;46.84;101480.70;2310314;75;49534;-75
2022/09/02 04:04:20;;;;;;;5.57;2.80;;;;;;;22.95;46.84;101483.75;2264648;77;51499;-75
2022/09/02 04:07:22;;;;;;;3.58;2.25;;;;;;;22.95;46.82;101487.27;2288728;76;50468;-74
2022/09/02 04:10:25;;;;;;;4.92;2.35;;;;;;;22.94;46.83;101489.66;2288882;76;50880;-75
2022/09/02 04:13:27;;;;;;;3.60;2.35;;;;;;;22.95;46.80;101485.93;2263595;77;50366;-75
2022/09/02 04:16:29;;;;;;;6.42;2.60;;;;;;;22.94;46.83;101486.11;2297840;76;50329;-74
2022/09/02 04:19:32;;;;;;;3.98;2.65;;;;;;;22.94;46.85;101485.62;2316227;76;51616;-77
2022/09/02 04:22:34;;;;;;;4.83;2.72;;;;;;;22.94;46.82;101492.86;2298292;76;50344;-75
2022/09/02 04:25:39;;;;;;;5.40;2.72;;;;;;;22.94;46.85;101494.20;2316189;75;49588;-75
2022/09/02 04:28:41;;;;;;;5.37;2.85;;;;;;;22.95;46.84;101493.19;2297149;76;50607;-75
2022/09/02 04:31:43;;;;;;;3.72;2.35;;;;;;;22.93;46.87;101487.98;2292610;76;50594;-75
2022/09/02 04:34:45;;;;;;;6.00;2.62;;;;;;;22.94;46.86;101491.50;2232729;77;50931;-76
2022/09/02 04:37:48;;;;;;;5.90;2.50;;;;;;;22.93;46.91;101489.84;2256903;77;51471;-75
2022/09/02 04:40:50;;;;;;;5.75;2.98;;;;;;;22.93;46.91;101488.50;2290103;76;51480;-76
2022/09/02 04:43:53;;;;;;;4.78;2.42;;;;;;;22.94;46.89;101492.86;2282395;77;51555;-75
2022/09/02 04:46:55;;;;;;;5.47;2.70;;;;;;;22.91;47.34;101493.24;2289590;76;50393;-73
2022/09/02 04:49:58;;;;;;;5.85;2.70;;;;;;;22.91;47.34;101491.89;2231091;77;49448;-73
2022/09/02 04:53:00;;;;;;;8.35;2.62;;;;;;;22.90;47.49;101486.19;2282304;77;50705;-73
2022/09/02 04:56:06;;;;;;;4.37;2.62;;;;;;;22.92;47.89;101486.84;2282079;77;51492;-75
2022/09/02 04:59:09;;;;;;;11.60;3.27;;;;;;;22.91;47.61;101494.59;2233364;76;50218;-74
2022/09/02 05:02:11;;;;;;;11.18;3.90;;;;;;;22.91;48.20;101493.24;2294532;77;51477;-76
2022/09/02 05:05:13;;;;;;;13.65;3.67;;;;;;;22.92;48.36;101494.94;2297966;76;51457;-75
2022/09/02 05:08:21;;;;;;;11.50;3.72;;;;;;;22.93;48.43;101500.64;2288852;76;51429;-74
2022/09/02 05:11:21;;;;;;;8.98;3.27;;;;;;;22.92;49.21;101491.72;2298758;76;22381;-75
2022/09/02 05:14:24;;;;;;;8.68;3.17;;;;;;;22.93;48.97;101498.77;2316549;74;51011;-75
2022/09/02 05:17:30;;;;;;;8.93;3.55;;;;;;;22.93;49.46;101500.64;2263458;77;50398;-76
2022/09/02 05:20:31;;;;;;;6.47;3.30;;;;;;;22.92;49.41;101507.08;2298533;76;22276;-75
2022/09/02 05:23:34;;;;;;;8.95;3.27;;;;;;;22.92;49.32;101508.43;2263788;77;51513;-74
2022/09/02 05:26:36;;;;;;;9.38;3.10;;;;;;;22.93;49.33;101514.13;2315952;76;50694;-75
2022/09/02 05:29:38;;;;;;;7.10;3.05;;;;;;;22.93;49.30;101506.87;2295105;76;51508;-75
2022/09/02 05:32:41;;;;;;;12.93;3.40;;;;;;;22.95;48.87;101512.09;2302170;76;50316;-75
2022/09/02 05:35:43;;;;;;;9.08;2.95;;;;;;;22.96;49.03;101512.39;2297555;76;51483;-75
2022/09/02 05:38:45;;;;;;;10.90;3.12;;;;;;;22.95;49.61;101517.48;2297625;76;49558;-74
2022/09/02 05:41:48;;;;;;;8.95;2.75;;;;;;;22.95;49.36;101515.62;2272361;78;50224;-75
2022/09/02 05:44:50;;;;;;;7.33;3.00;;;;;;;22.95;49.35;101514.78;2277404;77;50337;-73
2022/09/02 05:47:52;;;;;;;10.38;3.15;;;;;;;22.95;49.46;101514.78;2297747;75;49526;-73
2022/09/02 05:50:54;;;;;;;9.63;3.00;;;;;;;22.95;49.50;101508.03;2277364;76;50320;-74
2022/09/02 05:53:57;;;;;;;10.65;3.42;;;;;;;22.93;49.60;101508.22;2277382;77;50679;-73
2022/09/02 05:57:02;;;;;;;13.28;3.17;;;;;;;22.97;49.17;101508.20;2273550;77;51494;-75
2022/09/02 06:00:06;;;;;;;14.73;3.47;;;;;;;22.99;49.47;101506.64;2293358;76;50672;-78
2022/09/02 06:03:08;;;;;;;9.60;3.22;;;;;;;22.97;49.58;101501.97;2287876;76;49569;-77
2022/09/02 06:06:10;;;;;;;12.15;3.22;;;;;;;22.94;49.30;101511.75;2297676;76;50687;-76
2022/09/02 06:09:14;;;;;;;10.98;2.87;;;;;;;22.93;49.43;101508.73;2262394;77;52106;-73
2022/09/02 06:12:18;;;;;;;11.93;2.83;;;;;;;22.94;49.30;101508.56;2287116;76;50855;-73
2022/09/02 06:15:20;;;;;;;8.43;2.80;;;;;;;22.94;49.47;101510.39;2293795;77;24266;-74
2022/09/02 06:18:23;;;;;;;12.07;2.87;;;;;;;22.95;49.07;101509.39;2257851;78;51555;-73
2022/09/02 06:21:25;;;;;;;10.08;2.85;;;;;;;22.95;49.20;101510.22;2250612;78;51494;-74
2022/09/02 06:24:27;;;;;;;11.88;3.40;;;;;;;22.96;49.12;101504.30;2257833;78;51409;-74
2022/09/02 06:27:29;;;;;;;10.65;3.30;;;;;;;23.00;49.24;101506.46;2275344;77;51382;-73
2022/09/02 06:30:32;;;;;;;10.05;3.20;;;;;;;23.03;49.52;101506.59;2301056;75;50040;-73
2022/09/02 06:33:35;;;;;;;10.75;3.20;;;;;;;23.05;49.23;101509.95;2298239;76;50258;-75
2022/09/02 06:36:37;;;;;;;9.15;2.90;;;;;;;23.05;49.08;101508.59;2289890;77;50005;-74
2022/09/02 06:39:42;;;;;;;5.42;2.67;;;;;;;23.04;49.18;101503.72;2316334;76;51469;-73
2022/09/02 06:42:43;;;;;;;10.98;2.87;;;;;;;23.01;49.18;101508.13;2263405;77;22347;-73
2022/09/02 06:45:45;;;;;;;10.10;2.60;;;;;;;23.01;49.41;101505.94;2262699;76;50356;-73
2022/09/02 06:48:48;;;;;;;8.63;2.77;;;;;;;23.09;49.45;101511.21;2295483;77;50805;-72
2022/09/02 06:51:51;;;;;;;13.70;2.52;;;;;;;23.10;49.25;101514.77;2256823;77;50084;-72
2022/09/02 06:54:54;;;;;;;12.25;3.30;;;;;;;23.13;49.19;101504.41;2282446;77;50260;-72
2022/09/02 06:57:56;;;;;;;11.00;2.95;;;;;;;23.16;49.21;101509.42;2282059;76;51534;-72
2022/09/02 07:00:58;;;;;;;7.25;2.40;;;;;;;23.15;48.95;101509.11;2257722;77;50962;-74
2022/09/02 07:07:20;;;;;;;9.30;2.90;;;;;;;23.16;48.83;101506.72;2314047;76;22431;-73
2022/09/02 07:10:23;;;;;;;9.35;2.95;;;;;;;23.14;48.76;101508.77;2297945;76;50320;-73
2022/09/02 07:13:25;;;;;;;8.53;2.70;;;;;;;23.14;48.67;101507.94;2270492;76;50290;-72
2022/09/02 07:16:29;;;;;;;6.55;2.83;;;;;;;23.16;48.59;101512.13;2312135;76;50086;-73
2022/09/02 07:19:31;;;;;;;9.95;3.12;;;;;;;23.18;48.46;101511.94;2298293;76;50370;-73
2022/09/02 07:22:34;;;;;;;13.03;2.80;;;;;;;23.18;48.06;101518.69;2296298;76;50344;-73
2022/09/02 07:25:40;;;;;;;7.70;2.95;;;;;;;23.18;47.83;101515.47;2314554;76;50267;-73
2022/09/02 07:28:42;;;;;;;12.98;3.87;;;;;;;23.20;47.84;101518.82;2296133;76;24400;-73
2022/09/02 07:31:46;;;;;;;19.57;4.47;;;;;;;23.17;47.60;101512.46;2285309;77;50415;-73
2022/09/02 07:34:48;;;;;;;24.72;4.50;;;;;;;23.17;47.61;101511.11;2257317;77;50671;-73
2022/09/02 07:37:50;;;;;;;31.80;5.40;;;;;;;23.20;47.27;101511.24;2297841;76;51499;-73
2022/09/02 07:40:52;;;;;;;62.60;8.70;;;;;;;23.25;46.80;101510.98;2316588;75;51315;-73
2022/09/02 07:43:54;;;;;;;81.92;9.73;;;;;;;23.27;46.89;101510.77;2287211;76;50148;-72
2022/09/02 07:46:57;;;;;;;72.35;10.00;;;;;;;23.28;46.66;101508.92;2295986;76;50358;-72
2022/09/02 07:49:59;;;;;;;68.60;7.95;;;;;;;23.29;46.51;101512.77;2318980;76;50731;-72
2022/09/02 07:53:05;;;;;;;77.05;8.78;;;;;;;23.31;46.38;101515.28;2298703;76;50335;-72
2022/09/02 07:56:05;;;;;;;63.70;8.75;;;;;;;23.32;46.17;101513.72;2298825;76;22562;-72
2022/09/02 07:59:08;;;;;;;58.13;6.72;;;;;;;23.35;46.11;101519.25;2265820;76;50950;-73
2022/09/02 08:02:10;;;;;;;39.88;6.00;;;;;;;23.36;45.87;101524.98;2292355;76;51480;-73
2022/09/02 08:05:13;;;;;;;45.83;6.22;;;;;;;23.34;45.61;101521.64;2257008;77;51460;-73
2022/09/02 08:08:18;;;;;;;44.50;6.10;;;;;;;23.33;45.69;101523.52;2231129;77;49575;-73
2022/09/02 08:11:20;;;;;;;37.98;5.62;;;;;;;23.34;45.64;101518.94;2290018;76;22629;-73
2022/09/02 08:14:25;;;;;;;38.25;5.58;;;;;;;23.33;45.83;101522.69;2289666;77;50629;-74
2022/09/02 08:17:27;;;;;;;39.83;5.50;;;;;;;23.33;45.55;101524.03;2249827;77;49953;-74
2022/09/02 08:20:32;;;;;;;28.77;4.35;;;;;;;23.33;45.51;101522.69;2289717;76;50381;-74
2022/09/02 08:23:34;;;;;;;25.27;4.33;;;;;;;23.33;45.53;101515.93;2233178;77;51305;-74
2022/09/02 08:26:37;;;;;;;19.37;3.37;;;;;;;23.34;45.43;101514.89;2256527;77;49851;-74
2022/09/02 08:29:39;;;;;;;18.27;3.33;;;;;;;23.31;45.26;101511.23;2283511;76;51579;-73
2022/09/02 08:32:41;;;;;;;10.80;3.22;;;;;;;23.33;45.13;101518.63;2276170;77;52445;-75
2022/09/02 08:35:43;;;;;;;13.48;2.80;;;;;;;23.31;44.93;101511.23;2277230;77;51506;-74
2022/09/02 08:38:46;;;;;;;14.55;2.65;;;;;;;23.30;44.77;101513.59;2272025;78;50722;-73
2022/09/02 08:41:54;;;;;;;11.30;3.05;;;;;;;23.30;44.74;101517.16;2297688;76;50533;-73
2022/09/02 08:44:58;;;;;;;13.68;2.77;;;;;;;23.28;44.64;101507.58;2277246;77;50317;-73
2022/09/02 08:48:22;;;;;;;8.20;2.55;;;;;;;23.26;44.61;101503.70;2297350;75;50988;-73
2022/09/02 08:51:40;;;;;;;8.85;2.20;;;;;;;23.25;44.63;101505.58;2277346;77;51527;-73
2022/09/02 08:54:44;;;;;;;6.17;2.35;;;;;;;23.23;44.65;101500.88;2277292;77;50741;-74
2022/09/02 08:57:48;;;;;;;14.38;2.67;;;;;;;23.24;44.56;101497.66;2298086;75;50945;-73
2022/09/02 09:00:54;;;;;;;8.78;2.33;;;;;;;23.22;44.56;101498.36;2291615;76;51423;-73
2022/09/02 09:04:13;;;;;;;;;;;;;;;23.20;44.61;101497.74;2300330;76;51080;-74
2022/09/02 09:07:25;;;;;;;3.55;1.82;;;;;;;23.20;44.72;101490.47;2264831;77;50969;-73
2022/09/02 09:10:37;;;;;;;5.30;1.92;;;;;;;23.18;44.71;101488.47;2292533;77;51505;-73
2022/09/02 09:13:42;;;;;;;4.62;1.95;;;;;;;23.21;44.67;101488.60;2297939;76;50726;-73
2022/09/02 09:16:54;;;;;;;;;;;;;;;23.15;44.75;101490.22;2300582;76;50722;-74
2022/09/02 09:19:59;;;;;;;;;;;;;;;23.15;44.91;101479.94;2300869;76;51528;-73
2022/09/02 09:23:01;;;;;;;;;;;;;;;23.14;44.89;101477.72;2300829;77;51526;-72
2022/09/02 09:26:09;;;;;;;;;;;;;;;23.17;44.76;101472.45;2267302;76;51909;-73
2022/09/02 09:29:11;;;;;;;;;;;;;;;23.16;44.91;101477.02;2300954;76;51429;-72
2022/09/02 09:32:20;;;;;;;;;;;;;;;23.14;44.94;101475.55;2297946;76;51401;-74
2022/09/02 09:35:22;;;;;;;;;;;;;;;23.14;44.84;101472.33;2300753;76;50731;-74
2022/09/02 09:38:30;;;;;;;;;;;;;;;23.13;44.88;101469.31;2267174;77;49505;-73
2022/09/02 09:41:32;;;;;;;;;;;;;;;23.12;44.76;101474.90;2300691;76;51623;-72
2022/09/02 09:44:44;;;;;;;;;;;;;;;23.11;44.72;101467.32;2300568;76;50370;-72
2022/09/02 09:47:46;;;;;;;;;;;;;;;23.10;44.71;101469.71;2292789;76;51472;-73
2022/09/02 09:50:58;;;;;;;;;;;;;;;23.11;44.61;101457.05;2267507;77;51080;-73
2022/09/02 09:54:15;;;;;;;;;;;;;;;23.10;44.45;101460.26;2300850;76;50287;-73
2022/09/02 09:57:18;;;;;;;;;;;;;;;23.08;44.38;101452.86;2300567;76;50262;-74
2022/09/02 10:00:21;;;;;;;;;;;;;;;23.08;44.29;101450.16;2297939;77;52894;-75
2022/09/02 10:03:25;;;;;;;;;;;;;;;23.07;44.15;101457.09;2301306;76;50744;-73
2022/09/02 10:06:31;;;;;;;;;;;;;;;23.06;44.20;101457.61;2301006;77;51574;-73
2022/09/02 10:09:35;;;;;;;;;;;;;;;23.06;44.08;101452.22;2300913;76;50396;-73
2022/09/02 10:12:37;;;;;;;;;;;;;;;23.05;44.08;101442.46;2300924;76;50579;-73
2022/09/02 10:15:46;;;;;;;;;;;;;;;23.04;44.02;101451.56;2267547;76;51057;-74
2022/09/02 10:18:52;;;;;;;;;;;;;;;23.06;44.04;101448.69;2300589;76;50373;-73
2022/09/02 10:22:04;;;;;;;;;;;;;;;23.05;43.97;101434.36;2300978;76;50488;-73
2022/09/02 10:25:20;;;;;;;;;;;;;;;23.06;43.87;101434.67;2300958;77;51462;-73
2022/09/02 10:28:42;;;;;;;;;;;;;;;23.07;43.94;101444.95;2267242;76;52666;-74
2022/09/02 10:31:45;;;;;;;;;;;;;;;23.07;43.75;101439.06;2289076;77;50340;-73
2022/09/02 10:35:00;;;;;;;;;;;;;;;23.05;43.68;101433.02;2300866;76;50252;-73
2022/09/02 10:38:06;;;;;;;;;;;;;;;23.04;43.66;101434.88;2300652;76;50813;-72
2022/09/02 10:41:25;;;;;;;;;;;;;;;23.04;43.61;101427.27;2267579;76;50926;-73
2022/09/02 10:44:29;;;;;;;;;;;;;;;23.04;43.58;101431.32;2298111;76;50911;-74
2022/09/02 10:47:32;;;;;;;;;;;;;;;23.05;43.51;101431.66;2292865;77;22388;-74
2022/09/02 10:50:38;;;;;;;;;;;;;;;23.04;43.47;101422.73;2292859;76;50744;-72
2022/09/02 10:53:45;;;;;;;;;;;;;;;23.06;43.44;101425.74;2292418;77;51061;-73
2022/09/02 10:56:56;;;;;;;;;;;;;;;23.05;43.33;101424.91;2292670;77;51533;-72
2022/09/02 10:59:59;;;;;;;;;;;;;;;23.04;43.31;101424.58;2292550;76;50102;-73
2022/09/02 11:03:08;;;;;;;;;;;;;;;23.02;43.41;101426.14;2292808;77;51453;-72
2022/09/02 11:06:15;;;;;;;;;;;;;;;23.05;43.19;101426.27;2259253;77;51483;-73
2022/09/02 11:09:26;;;;;;;;;;;;;;;23.05;43.17;101419.52;2289688;76;50275;-74
2022/09/02 11:12:35;;;;;;;;;;;;;;;23.04;43.18;101420.52;2294226;77;50203;-74
2022/09/02 11:15:41;;;;;;;;;;;;;;;23.04;43.14;101417.83;2298014;76;52292;-74
2022/09/02 11:18:50;;;;;;;;;;;;;;;23.06;43.08;101411.72;2265844;76;50796;-75
2022/09/02 11:22:00;;;;;;;;;;;;;;;23.05;42.95;101412.77;2298749;77;51523;-74
2022/09/02 11:25:08;;;;;;;;;;;;;;;23.04;42.84;101407.03;2296802;76;50449;-73
2022/09/02 11:28:11;;;;;;;;;;;;;;;23.07;43.14;101403.97;2297701;77;51403;-73
2022/09/02 11:31:14;;;;;;;;;;;;;;;23.04;43.20;101408.38;2293835;76;51358;-74
2022/09/02 11:34:37;;;;;;;;;;;;;;;23.04;43.21;101407.03;2297126;77;51391;-73
2022/09/02 11:37:46;;;;;;;;;;;;;;;23.06;43.35;101410.37;2299620;76;22415;-73
2022/09/02 11:40:49;;;;;;;;;;;;;;;23.04;43.43;101401.14;2300820;76;50894;-73
2022/09/02 11:43:52;;;;;;;;;;;;;;;23.08;43.37;101408.84;2264806;77;52460;-73
2022/09/02 11:47:06;;;;;;;;;;;;;;;23.10;43.34;101408.14;2293968;77;50334;-73
2022/09/02 11:50:10;;;;;;;;;;;;;;;23.12;43.45;101403.36;2293365;76;50721;-73
2022/09/02 11:53:19;;;;;;;;;;;;;;;23.15;43.20;101399.77;2301334;76;50280;-72
2022/09/02 11:56:23;;;;;;;;;;;;;;;23.13;42.84;101400.48;2327129;75;49487;-74
2022/09/02 11:59:43;;;;;;;;;;;;;;;23.06;43.05;101400.93;2301136;76;50368;-74
2022/09/02 12:02:51;;;;;;;;;;;;;;;22.99;43.08;101399.54;2298025;76;51341;-74
2022/09/02 12:06:09;;;;;;;;;;;;;;;23.00;43.17;101405.25;2296071;77;51539;-73
2022/09/02 12:09:10;;;;;;;;;;;;;;;23.03;43.25;101393.22;2267304;77;49600;-74
2022/09/02 12:12:30;;;;;;;;;;;;;;;23.12;43.17;101390.72;2268152;77;51435;-76
2022/09/02 12:15:34;;;;;;;;;;;;;;;23.14;43.13;101384.59;2284348;76;50622;-74
2022/09/02 12:18:35;;;;;;;;;;;;;;;23.14;43.34;101383.23;2288510;76;22350;-74
2022/09/02 12:21:38;;;;;;;;;;;;;;;23.16;43.15;101378.48;2268517;77;50998;-73
2022/09/02 12:24:52;;;;;;;;;;;;;;;23.16;43.29;101368.20;2269969;76;52758;-71
2022/09/02 12:28:13;;;;;;;;;;;;;;;23.15;43.39;101360.62;2305510;76;50809;-74
2022/09/02 12:31:17;;;;;;;;;;;;;;;23.16;43.32;101360.11;2298788;76;50670;-75
2022/09/02 12:34:27;;;;;;;;;;;;;;;23.11;43.44;101363.39;2261262;76;50063;-75
2022/09/02 12:37:47;;;;;;;;;;;;;;;23.11;43.49;101356.64;2297205;77;50629;-71
2022/09/02 12:41:08;;;;;;;;;;;;;;;23.06;44.03;101353.69;2296459;76;49947;-75
2022/09/02 12:44:16;;;;;;;;;;;;;;;23.08;44.86;101352.98;2302260;76;22591;-75
2022/09/02 12:47:37;;;;;;;;;;;;;;;23.11;44.70;101350.41;2262517;77;51886;-76
2022/09/02 12:50:54;;;;;;;;;;;;;;;23.13;44.72;101350.53;2301609;76;51457;-74
2022/09/02 12:53:56;;;;;;;;;;;;;;;23.11;45.08;101343.14;2301383;76;51496;-75
2022/09/02 12:56:58;;;;;;;;;;;;;;;23.10;45.58;101338.78;2301167;76;51436;-75
2022/09/02 13:00:00;;;;;;;;;;;;;;;23.14;45.71;101335.16;2303581;76;51634;-75
2022/09/02 13:03:12;;;;;;;;;;;;;;;23.17;45.96;101332.06;2305983;76;50702;-74
2022/09/02 13:06:19;;;;;;;;;;;;;;;23.16;45.92;101329.06;2301955;77;50788;-76
2022/09/02 13:09:38;;;;;;;;;;;;;;;23.15;46.12;101326.88;2301801;76;51640;-76
2022/09/02 13:12:54;;;;;;;;;;;;;;;23.12;46.34;101321.87;2303907;76;50052;-76
2022/09/02 13:16:03;;;;;;;;;;;;;;;23.10;46.48;101327.98;2300768;77;51490;-75
2022/09/02 13:19:11;;;;;;;;;;;;;;;23.09;46.47;101320.90;2300810;76;50168;-76
2022/09/02 13:22:29;;;;;;;;;;;;;;;23.08;46.52;101321.94;2300855;76;50412;-75
2022/09/02 13:25:38;;;;;;;;;;;;;;;23.09;46.54;101318.72;2267483;76;49693;-75
2022/09/02 13:28:50;;;;;;;;;;;;;;;23.06;46.66;101320.47;2300696;76;50197;-76
2022/09/02 13:31:59;;;;;;;;;;;;;;;23.10;46.76;101313.66;2300855;76;51550;-76
2022/09/02 13:35:03;;;;;;;;;;;;;;;23.11;46.85;101309.92;2300986;76;50719;-76
2022/09/02 13:38:04;;;;;;;;;;;;;;;23.13;47.04;101308.69;2267325;76;51031;-76
2022/09/02 13:41:06;;;;;;;;;;;;;;;23.13;47.13;101310.04;2290305;77;51500;-75
2022/09/02 13:44:11;;;;;;;;;;;;;;;23.14;47.36;101306.30;2293503;77;50787;-76
2022/09/02 13:47:16;;;;;;;;;;;;;;;23.14;46.49;101295.50;2292575;77;51428;-74
2022/09/02 13:50:19;;;;;;;;;;;;;;;23.15;47.22;101291.78;2259771;77;51007;-75
2022/09/02 13:53:22;;;;;;;;;;;;;;;23.12;46.53;101294.02;2292811;77;50401;-75
2022/09/02 13:56:24;;;;;;;;;;;;;;;23.13;46.46;101287.61;2292515;77;50272;-75
2022/09/02 13:59:39;;;;;;;;;;;;;;;23.14;46.23;101287.92;2292775;76;51546;-77
2022/09/02 14:02:41;;;;;;;;;;;;;;;23.12;45.85;101285.44;2259922;77;50506;-75
2022/09/02 14:05:44;;;;;;;;;;;;;;;23.13;45.60;101287.09;2292515;77;50342;-74
2022/09/02 14:08:45;;;;;;;;;;;;;;;23.15;45.69;101276.11;2292235;76;50358;-75
2022/09/02 14:11:47;;;;;;;;;;;;;;;23.15;45.60;101275.59;2296084;76;50704;-75
2022/09/02 14:14:49;;;;;;;;;;;;;;;23.16;45.65;101265.09;2259729;77;49552;-75
2022/09/02 14:18:06;;;;;;;;;;;;;;;23.16;45.59;101266.44;2292501;77;50353;-77
2022/09/02 14:21:16;;;;;;;;;;;;;;;23.16;45.73;101271.84;2292964;76;50274;-76
2022/09/02 14:24:24;;;;;;;;;;;;;;;23.17;45.69;101266.78;2292662;77;51583;-75
2022/09/02 14:27:26;;;;;;;;;;;;;;;23.17;45.34;101264.08;2297321;77;51175;-76
2022/09/02 14:30:33;;;;;;;;;;;;;;;23.15;45.47;101266.14;2292699;76;50125;-76
2022/09/02 14:33:39;;;;;;;;;;;;;;;23.12;45.52;101265.68;2259897;77;50041;-75
2022/09/02 14:36:41;;;;;;;;;;;;;;;23.11;45.43;101265.38;2292665;77;51553;-76
2022/09/02 14:39:52;;;;;;;;;;;;;;;23.14;45.18;101264.97;2293371;76;51455;-76
2022/09/02 14:42:53;;;;;;;;;;;;;;;23.14;45.27;101265.80;2295042;77;50807;-76
2022/09/02 14:45:57;;;;;;;;;;;;;;;23.11;45.56;101262.67;2292649;77;51482;-75
2022/09/02 14:48:59;;;;;;;;;;;;;;;23.08;45.18;101263.91;2292738;76;51466;-76
2022/09/02 14:52:03;;;;;;;;;;;;;;;23.07;44.90;101252.80;2259674;77;50232;-75